Portales, NM

12:05 PM MDT on July 31, 2014 (GMT -0600)
Cannon Air Force Base (KCVS) Elev 4295 ft | 34.38 °N, 103.32 °W | Change Station

Current weather conditions updated 7 minutes ago

Mostly Cloudy
Mostly Cloudy
72 °F
Feels Like 72 °F
N
6
Wind Variable Wind from Variable

Today is forecast to be nearly the same temperature as yesterday.

Today
High -- | Low -- °F
--% Chance of Precip.
Yesterday
High -- | Low -- °F
Precip. -- in
6:04 AM 7:53 PM
Waxing Crescent, 20% visible
Pressure 30.13 in
Visibility 10.0 miles
Clouds Few 10000 ft
Mostly Cloudy 20000 ft
Dew Point 50 °F
Humidity 45%
Rainfall 0.00 in
Snow Depth Not available.
UV 6 out of 12
Pollen 3.30 out of 12
Air Quality Not available.
Flu Activity Not available.
METAR KCVS 311758Z VRB05KT 10SM FEW100 BKN200 22/10 A3027 RMK AO2A SLP202 T02240098 10226 20155 58004 $

More Conditions Fewer Conditions

Pressure 30.13 in
Visibility 10.0 miles
Clouds Few 10000 ft
Mostly Cloudy 20000 ft
Dew Point 50 °F
Humidity 45%
Rainfall 0.00 in
Snow Depth Not available.
UV 6 out of 12
Pollen 3.30 out of 12
Air Quality Not available.
Flu Activity Not available.
METAR KCVS 311758Z VRB05KT 10SM FEW100 BKN200 22/10 A3027 RMK AO2A SLP202 T02240098 10226 20155 58004 $

More Conditions Fewer Conditions

10-Day Weather Forecast

Almanac

Astronomy

Jul. 31, 2014 Rise Set
Actual Time 6:04 AM MDT 7:53 PM MDT
Civil Twilight 5:36 AM MDT 8:20 PM MDT
Nautical Twilight 5:03 AM MDT 8:53 PM MDT
Astronomical Twilight 4:28 AM MDT 9:28 PM MDT
Moon 10:18 AM MDT 10:24 PM MDT
Length of Visible Light 14h 43m
Length of Day
13h 49m
Tomorrow will be 1m 33s shorter.
Waxing Crescent, 20% of the Moon is Illuminated
Today
Waxing Crescent
Aug 3
First Quarter
Aug 10
Full
Aug 17
Last Quarter
Aug 25
New

Today's Extremes

State Highs State Lows

Community

WunderPhotos

Upload Photos

1,739,397 photos uploaded!

Nearby

Snow Depth

Station Depth Elevation
Sierra Blanca 0 in 10280 ft
Wesner Springs 2 in 11120 ft
Elk Cabin 137 in 8210 ft
Gallegos Peak 0 in 9800 ft
Tolby 0 in 10180 ft

Earthquake Activity

City Distance Mag. Time & Date
No recent earthquake activity has been reported nearby.
Minimum magnitude displayed is 2.5.

Coastal Water Temperatures

Place Temperature
No Stations Reporting

Nearby Weather Stations

There are no personal weather stations in this area.